Time;durP1;ratioP1;P1;durP2;ratioP2;P2;SDS_P1;SDS_P2;PMS_P1;PMS_P2;Temp;Humidity;BMP_temperature;BMP_pressure;BME280_temperature;BME280_humidity;BME280_pressure;Samples;Min_cycle;Max_cycle;Signal;HPM_P1;HPM_P2
2022/09/26 00:01:08;;;;;;;0.40;0.40;;;;;;;10.41;92.02;99185.56;5066587;28;20028;-73
2022/09/26 00:03:34;;;;;;;0.40;0.40;;;;;;;10.44;92.15;99179.47;5066268;28;20155;-73
2022/09/26 00:06:02;;;;;;;1.17;1.17;;;;;;;10.49;91.90;99172.44;5064968;28;20017;-73
2022/09/26 00:08:27;;;;;;;0.40;0.40;;;;;;;10.52;92.21;99168.91;5065912;28;20051;-73
2022/09/26 00:10:57;;;;;;;0.40;0.40;;;;;;;10.53;92.29;99162.81;5066662;28;20017;-72
2022/09/26 00:13:25;;;;;;;0.40;0.40;;;;;;;10.43;92.22;99146.63;5066287;28;20033;-71
2022/09/26 00:15:50;;;;;;;0.40;0.40;;;;;;;10.35;92.58;99152.00;5066283;28;20021;-71
2022/09/26 00:18:15;;;;;;;0.40;0.40;;;;;;;10.29;92.79;99159.97;5065794;28;20156;-71
2022/09/26 00:20:41;;;;;;;0.40;0.40;;;;;;;10.28;93.02;99158.28;5064851;28;20029;-71
2022/09/26 00:23:06;;;;;;;0.50;0.50;;;;;;;10.26;93.13;99155.72;5066051;28;20052;-71
2022/09/26 00:25:32;;;;;;;0.50;0.50;;;;;;;10.27;93.02;99151.41;5065928;28;20373;-71
2022/09/26 00:27:57;;;;;;;0.40;0.40;;;;;;;10.19;93.20;99142.97;5065890;28;20114;-72
2022/09/26 00:30:22;;;;;;;0.40;0.40;;;;;;;10.12;93.23;99137.09;5065600;28;20029;-72
2022/09/26 00:32:48;;;;;;;0.45;0.45;;;;;;;10.08;93.59;99128.53;5065809;28;20026;-71
2022/09/26 00:35:14;;;;;;;0.50;0.50;;;;;;;10.10;93.65;99124.16;5066199;28;20051;-72
2022/09/26 00:37:39;;;;;;;0.40;0.40;;;;;;;10.01;94.20;99108.88;5065753;28;20484;-72
2022/09/26 00:40:05;;;;;;;0.40;0.40;;;;;;;10.04;94.09;99104.47;5065725;28;20024;-74
2022/09/26 00:42:30;;;;;;;0.40;0.40;;;;;;;9.96;94.12;99113.31;5065960;28;20028;-72
2022/09/26 00:44:56;;;;;;;1.20;1.20;;;;;;;9.88;94.34;99113.53;5064100;28;20044;-72
2022/09/26 00:47:28;;;;;;;0.40;0.40;;;;;;;9.88;94.74;99116.97;5064325;28;20044;-72
2022/09/26 00:50:13;;;;;;;;;;;;;;;9.90;95.14;99117.75;5065963;28;20029;-72
2022/09/26 00:52:45;;;;;;;0.40;0.40;;;;;;;9.89;95.05;99107.44;5064652;28;19913;-72
2022/09/26 00:55:14;;;;;;;0.50;0.50;;;;;;;9.86;95.10;99102.34;5065323;28;20136;-72
2022/09/26 00:57:52;;;;;;;0.45;0.45;;;;;;;9.85;95.08;99098.06;5064963;28;20029;-72
2022/09/26 01:00:17;;;;;;;0.40;0.40;;;;;;;9.85;95.41;99100.63;5064302;28;20432;-72
2022/09/26 01:02:45;;;;;;;0.50;0.50;;;;;;;9.86;95.73;99105.78;5065154;28;20021;-73
2022/09/26 01:05:15;;;;;;;0.40;0.40;;;;;;;9.86;96.08;99103.19;5063947;28;20037;-71
2022/09/26 01:07:41;;;;;;;0.40;0.40;;;;;;;9.89;96.01;99094.47;5065308;28;20049;-72
2022/09/26 01:10:07;;;;;;;0.40;0.40;;;;;;;9.92;95.94;99096.97;5065209;28;20024;-71
2022/09/26 01:12:35;;;;;;;0.40;0.40;;;;;;;9.88;95.85;99087.59;5065079;28;20044;-71
2022/09/26 01:15:01;;;;;;;0.40;0.40;;;;;;;9.89;95.72;99086.69;5065387;28;20392;-71
2022/09/26 01:17:26;;;;;;;0.40;0.40;;;;;;;9.88;95.91;99093.66;5064897;28;20498;-71
2022/09/26 01:20:29;;;;;;;0.50;0.50;;;;;;;9.88;96.15;99091.06;5065049;28;20017;-72
2022/09/26 01:23:10;;;;;;;0.40;0.40;;;;;;;9.86;96.41;99081.59;5064853;28;20025;-71
2022/09/26 01:26:10;;;;;;;0.45;0.45;;;;;;;9.85;96.33;99082.50;5063532;28;20088;-71
2022/09/26 01:29:09;;;;;;;0.52;0.52;;;;;;;9.82;96.24;99073.06;5064782;28;20029;-72
2022/09/26 01:34:54;;;;;;;0.40;0.40;;;;;;;9.77;96.33;99080.97;5064902;28;20023;-72
2022/09/26 01:37:38;;;;;;;0.50;0.50;;;;;;;9.74;96.65;99072.41;5065007;28;20060;-72
2022/09/26 01:40:09;;;;;;;0.50;0.50;;;;;;;9.77;96.56;99074.94;5064825;28;20024;-71
2022/09/26 01:43:04;;;;;;;0.40;0.40;;;;;;;9.70;96.59;99053.50;5063626;28;20048;-71
2022/09/26 01:45:45;;;;;;;0.43;0.43;;;;;;;9.72;96.96;99069.00;5064778;28;20029;-71
2022/09/26 01:48:19;;;;;;;0.40;0.40;;;;;;;9.74;96.98;99069.81;5064840;28;20048;-71
2022/09/26 01:50:54;;;;;;;0.50;0.50;;;;;;;9.75;96.94;99067.19;5064777;28;20029;-71
2022/09/26 01:53:33;;;;;;;0.43;0.43;;;;;;;9.72;97.00;99061.25;5063458;28;20029;-71
2022/09/26 01:56:03;;;;;;;0.50;0.50;;;;;;;9.75;97.19;99051.66;5065018;28;20078;-71
2022/09/26 01:58:40;;;;;;;0.40;0.40;;;;;;;9.78;97.51;99055.88;5064697;28;20029;-71
2022/09/26 02:01:10;;;;;;;0.40;0.40;;;;;;;9.76;97.21;99055.94;5064662;28;20116;-71
2022/09/26 02:03:42;;;;;;;0.50;0.50;;;;;;;9.80;97.38;99048.94;5064683;28;20021;-70
2022/09/26 02:06:12;;;;;;;0.50;0.50;;;;;;;9.79;97.43;99042.06;5068194;28;20058;-70
2022/09/26 02:08:44;;;;;;;0.40;0.40;;;;;;;9.82;97.37;99039.38;5068442;28;20056;-70
2022/09/26 02:11:17;;;;;;;0.40;0.40;;;;;;;9.86;97.23;99043.56;5067349;28;20500;-70
2022/09/26 02:14:04;;;;;;;0.50;0.50;;;;;;;9.84;96.91;99037.56;5068590;28;20025;-70
2022/09/26 02:16:49;;;;;;;0.40;0.40;;;;;;;9.85;97.05;99039.28;5068563;28;20041;-68
2022/09/26 02:19:24;;;;;;;0.50;0.50;;;;;;;9.85;97.22;99025.47;5068310;28;20105;-70
2022/09/26 02:21:51;;;;;;;0.40;0.40;;;;;;;9.85;97.22;99026.34;5068396;28;20187;-68
2022/09/26 02:24:16;;;;;;;0.40;0.40;;;;;;;9.86;96.95;99020.25;5068317;28;20033;-70
2022/09/26 02:26:42;;;;;;;0.38;0.38;;;;;;;9.86;97.00;99017.66;5068540;28;20032;-70
2022/09/26 02:29:08;;;;;;;0.40;0.40;;;;;;;9.84;96.83;99016.84;5067777;28;20025;-69
2022/09/26 02:31:37;;;;;;;0.93;0.93;;;;;;;9.85;96.97;99013.38;5066409;28;20025;-71
2022/09/26 02:34:03;;;;;;;0.40;0.40;;;;;;;9.84;96.93;99005.63;5067989;28;20077;-70
2022/09/26 02:36:32;;;;;;;0.40;0.40;;;;;;;9.81;97.15;99003.13;5066742;28;20027;-71
2022/09/26 02:38:58;;;;;;;0.50;0.50;;;;;;;9.83;97.10;98997.00;5067795;28;20028;-69
2022/09/26 02:41:44;;;;;;;0.40;0.40;;;;;;;9.88;97.16;98995.13;5068066;28;20029;-71
2022/09/26 02:44:28;;;;;;;0.50;0.50;;;;;;;9.87;97.02;98990.81;5067833;28;20048;-71
2022/09/26 02:47:12;;;;;;;0.40;0.40;;;;;;;9.90;97.14;98993.31;5067974;28;20024;-70
2022/09/26 02:49:56;;;;;;;0.38;0.38;;;;;;;9.91;97.20;98989.88;5068013;28;20017;-71
2022/09/26 02:52:39;;;;;;;0.40;0.40;;;;;;;9.89;97.23;98985.59;5068227;28;20029;-70
2022/09/26 02:55:18;;;;;;;0.40;0.40;;;;;;;9.86;97.35;98975.31;5067917;28;20029;-71
2022/09/26 02:58:04;;;;;;;0.40;0.40;;;;;;;9.89;97.51;98976.09;5067937;28;20051;-70
2022/09/26 03:00:46;;;;;;;0.40;0.40;;;;;;;9.86;97.43;98976.19;5068132;28;20033;-70
2022/09/26 03:03:18;;;;;;;0.50;0.50;;;;;;;9.87;97.58;98971.84;5067331;28;20025;-72
2022/09/26 03:05:47;;;;;;;0.40;0.40;;;;;;;9.88;97.42;98970.94;5069855;28;20449;-70
2022/09/26 03:08:21;;;;;;;0.40;0.40;;;;;;;9.88;97.71;98974.41;5078586;28;20047;-70
2022/09/26 03:10:48;;;;;;;0.40;0.40;;;;;;;9.90;97.48;98964.81;5069920;28;20385;-72
2022/09/26 03:13:17;;;;;;;0.50;0.50;;;;;;;9.92;97.49;98960.44;5066277;28;20117;-72
2022/09/26 03:15:46;;;;;;;0.43;0.43;;;;;;;9.91;97.68;98958.75;5067342;28;20031;-72
2022/09/26 03:18:17;;;;;;;0.45;0.45;;;;;;;9.89;97.83;98957.09;5067109;28;20048;-71
2022/09/26 03:20:43;;;;;;;0.50;0.50;;;;;;;9.91;97.41;98943.19;5067657;28;20051;-72
2022/09/26 03:23:09;;;;;;;0.45;0.45;;;;;;;9.93;97.72;98937.97;5066047;28;20024;-71
2022/09/26 03:25:34;;;;;;;0.40;0.40;;;;;;;9.97;97.57;98943.94;5065767;28;20025;-72
2022/09/26 03:28:01;;;;;;;0.40;0.40;;;;;;;9.97;97.73;98933.56;5065978;28;20040;-72
2022/09/26 03:30:28;;;;;;;0.40;0.40;;;;;;;9.95;97.50;98930.16;5066445;28;20021;-72
2022/09/26 03:32:54;;;;;;;0.50;0.50;;;;;;;9.90;96.79;98925.94;5067198;28;20048;-72
2022/09/26 03:35:20;;;;;;;0.50;0.50;;;;;;;9.82;96.77;98922.75;5067151;28;20032;-71
2022/09/26 03:37:46;;;;;;;0.40;0.40;;;;;;;9.79;96.93;98928.00;5066935;28;20095;-70
2022/09/26 03:40:13;;;;;;;0.40;0.40;;;;;;;9.71;96.64;98920.47;5066884;28;20021;-69
2022/09/26 03:42:39;;;;;;;0.40;0.40;;;;;;;9.68;96.88;98928.28;5067109;28;20078;-69
2022/09/26 03:45:11;;;;;;;0.47;0.47;;;;;;;9.63;97.09;98912.88;5066809;28;20037;-69
2022/09/26 03:47:37;;;;;;;0.50;0.50;;;;;;;9.59;97.13;98900.91;5066966;28;20093;-69
2022/09/26 03:50:06;;;;;;;0.40;0.40;;;;;;;9.61;97.08;98909.50;5066780;28;20032;-68
2022/09/26 03:52:31;;;;;;;0.40;0.40;;;;;;;9.60;96.98;98904.38;5066763;28;20143;-67
2022/09/26 03:54:57;;;;;;;2.67;1.85;;;;;;;9.56;97.48;98890.66;5066335;28;20021;-67
2022/09/26 03:57:22;;;;;;;0.43;0.43;;;;;;;9.57;97.22;98901.88;5066573;28;20043;-67
2022/09/26 03:59:48;;;;;;;0.50;0.50;;;;;;;9.57;97.33;98902.69;5066426;28;20088;-66
2022/09/26 04:02:15;;;;;;;0.40;0.40;;;;;;;9.55;97.48;98883.78;5066324;28;20021;-66
2022/09/26 04:04:40;;;;;;;0.40;0.40;;;;;;;9.53;97.51;98889.00;5066456;28;20025;-68
2022/09/26 04:07:06;;;;;;;0.40;0.40;;;;;;;9.50;97.29;98883.91;5066445;28;20029;-67
2022/09/26 04:09:31;;;;;;;0.40;0.40;;;;;;;9.50;97.67;98883.91;5066061;28;20029;-67
2022/09/26 04:11:56;;;;;;;0.40;0.40;;;;;;;9.53;97.73;98882.97;5066477;28;20029;-67
2022/09/26 04:14:25;;;;;;;0.40;0.40;;;;;;;9.51;97.64;98874.38;5066165;28;20035;-67
2022/09/26 04:16:50;;;;;;;0.40;0.40;;;;;;;9.45;97.46;98861.59;5066149;28;20105;-67
2022/09/26 04:19:16;;;;;;;0.50;0.50;;;;;;;9.50;97.68;98875.28;5066361;28;20025;-67
2022/09/26 04:21:41;;;;;;;0.40;0.40;;;;;;;9.50;97.92;98872.69;5066351;28;20465;-69
2022/09/26 04:24:11;;;;;;;0.50;0.50;;;;;;;9.50;97.92;98864.91;5066031;28;20029;-68
2022/09/26 04:26:39;;;;;;;0.40;0.40;;;;;;;9.45;97.73;98851.25;5065992;28;20389;-67
2022/09/26 04:29:05;;;;;;;0.50;0.50;;;;;;;9.50;97.71;98855.41;5063800;28;20033;-68
2022/09/26 04:31:33;;;;;;;0.50;0.50;;;;;;;9.48;97.51;98853.75;5065833;28;20530;-69
2022/09/26 04:33:59;;;;;;;0.50;0.50;;;;;;;9.46;97.22;98850.34;5066148;28;20029;-68
2022/09/26 04:36:24;;;;;;;0.50;0.50;;;;;;;9.46;97.55;98856.38;5066184;28;20093;-67
2022/09/26 04:38:49;;;;;;;0.50;0.50;;;;;;;9.44;97.13;98840.03;5065630;28;20071;-68
2022/09/26 04:41:17;;;;;;;0.40;0.40;;;;;;;9.39;97.22;98842.75;5064551;28;20024;-67
2022/09/26 04:43:43;;;;;;;0.50;0.50;;;;;;;9.39;97.35;98837.56;5065574;28;20025;-67
2022/09/26 04:46:15;;;;;;;0.40;0.40;;;;;;;9.39;96.41;98834.16;5065647;28;20093;-68
2022/09/26 04:48:40;;;;;;;0.52;0.52;;;;;;;9.38;96.43;98830.69;5065831;28;20054;-68
2022/09/26 04:51:08;;;;;;;0.50;0.50;;;;;;;9.33;96.88;98831.75;5065739;28;20053;-67
2022/09/26 04:53:34;;;;;;;0.40;0.40;;;;;;;9.29;97.00;98828.38;5065617;28;20025;-67
2022/09/26 04:56:00;;;;;;;0.40;0.40;;;;;;;9.29;96.75;98825.78;5065509;28;20020;-68
2022/09/26 04:58:25;;;;;;;2.05;1.40;;;;;;;9.26;96.53;98820.69;5065399;28;20051;-69
2022/09/26 05:00:51;;;;;;;0.50;0.50;;;;;;;9.20;96.88;98824.28;5065664;28;20024;-68
2022/09/26 05:03:17;;;;;;;0.40;0.40;;;;;;;9.15;97.31;98834.78;5064169;28;20031;-69
2022/09/26 05:05:46;;;;;;;0.60;0.60;;;;;;;9.15;97.50;98828.78;5065448;28;20500;-69
2022/09/26 05:08:12;;;;;;;0.40;0.40;;;;;;;9.18;97.27;98815.75;5065279;28;20047;-68
2022/09/26 05:10:38;;;;;;;0.40;0.40;;;;;;;9.13;97.35;98821.06;5064993;28;20044;-71
2022/09/26 05:13:04;;;;;;;0.40;0.40;;;;;;;9.08;97.30;98812.56;5065060;28;20029;-69
2022/09/26 05:15:30;;;;;;;0.45;0.45;;;;;;;9.05;97.46;98802.28;5065196;28;20073;-69
2022/09/26 05:17:59;;;;;;;0.50;0.50;;;;;;;9.05;97.76;98799.69;5064123;28;20053;-73
2022/09/26 05:20:30;;;;;;;1.25;1.25;;;;;;;9.02;97.99;98792.03;5062673;28;20111;-72
2022/09/26 05:22:59;;;;;;;0.50;0.50;;;;;;;9.05;97.97;98797.97;5065212;28;20024;-72
2022/09/26 05:28:12;;;;;;;0.40;0.40;;;;;;;9.03;98.09;98788.53;5065545;28;20358;-69
2022/09/26 05:30:38;;;;;;;0.50;0.50;;;;;;;9.10;97.93;98795.25;5065196;28;20029;-70
2022/09/26 05:33:06;;;;;;;2.45;1.88;;;;;;;9.06;98.29;98783.25;5065589;28;20080;-73
2022/09/26 05:35:34;;;;;;;0.50;0.50;;;;;;;9.09;98.59;98783.19;5065236;28;20253;-72
2022/09/26 05:38:04;;;;;;;0.40;0.40;;;;;;;9.18;98.22;98785.50;5065291;28;20437;-72
2022/09/26 05:43:14;;;;;;;0.40;0.40;;;;;;;9.18;98.25;98788.09;5068231;28;20079;-73
2022/09/26 05:45:40;;;;;;;0.40;0.40;;;;;;;9.14;98.76;98780.47;5068323;28;20028;-75
2022/09/26 05:48:05;;;;;;;0.40;0.40;;;;;;;9.17;99.32;98783.81;5068342;28;20029;-74
2022/09/26 05:50:32;;;;;;;0.50;0.50;;;;;;;9.25;99.04;98777.59;5068116;28;20033;-73
2022/09/26 05:53:01;;;;;;;0.50;0.50;;;;;;;9.25;99.03;98767.22;5068080;28;20025;-73
2022/09/26 05:55:28;;;;;;;0.40;0.40;;;;;;;9.26;99.07;98776.69;5068044;28;20052;-74
2022/09/26 05:57:57;;;;;;;0.50;0.50;;;;;;;9.22;99.21;98769.91;5068108;28;20040;-74
2022/09/26 06:00:26;;;;;;;0.40;0.40;;;;;;;9.24;99.14;98771.53;5068132;28;20021;-74
2022/09/26 06:02:55;;;;;;;0.63;0.63;;;;;;;9.24;99.43;98771.53;5068096;28;20087;-73
2022/09/26 06:05:24;;;;;;;0.43;0.43;;;;;;;9.29;99.64;98769.69;5067815;28;20546;-73
2022/09/26 06:07:51;;;;;;;0.60;0.60;;;;;;;9.33;99.50;98772.16;5067847;28;20143;-72
2022/09/26 06:10:17;;;;;;;0.40;0.40;;;;;;;9.35;99.41;98773.81;5067397;28;20055;-74
2022/09/26 06:12:43;;;;;;;0.57;0.57;;;;;;;9.35;99.69;98772.94;5069085;28;20029;-73
2022/09/26 06:15:08;;;;;;;0.45;0.45;;;;;;;9.35;99.58;98760.00;5066211;28;20027;-73
2022/09/26 06:17:35;;;;;;;0.50;0.50;;;;;;;9.32;99.52;98753.19;5067261;28;20076;-73
2022/09/26 06:20:01;;;;;;;0.50;0.50;;;;;;;9.38;99.79;98753.00;5067309;28;20047;-71
2022/09/26 06:22:27;;;;;;;0.40;0.40;;;;;;;9.42;99.32;98752.00;5067639;28;20021;-72
2022/09/26 06:24:53;;;;;;;0.50;0.50;;;;;;;9.45;99.59;98758.00;5067181;28;20048;-74
2022/09/26 06:27:21;;;;;;;0.50;0.50;;;;;;;9.48;99.41;98760.50;5067562;28;20461;-74
2022/09/26 06:29:46;;;;;;;0.50;0.50;;;;;;;9.45;99.42;98747.63;5067192;28;20021;-73
2022/09/26 06:32:12;;;;;;;0.50;0.50;;;;;;;9.45;99.50;98748.50;5067161;28;20048;-73
2022/09/26 06:34:37;;;;;;;0.50;0.50;;;;;;;9.48;99.58;98744.94;5066038;28;20372;-73
2022/09/26 06:37:03;;;;;;;0.40;0.40;;;;;;;9.54;99.53;98750.78;5066501;28;20048;-73
2022/09/26 06:39:34;;;;;;;0.40;0.40;;;;;;;9.55;99.60;98747.28;5065636;28;20016;-74
2022/09/26 06:42:01;;;;;;;0.57;0.57;;;;;;;9.59;99.72;98745.47;5067093;28;20028;-71
2022/09/26 06:44:27;;;;;;;0.50;0.50;;;;;;;9.58;99.99;98737.75;5065844;28;20021;-73
2022/09/26 06:46:52;;;;;;;0.40;0.40;;;;;;;9.66;99.70;98744.38;5067091;28;20027;-72
2022/09/26 06:49:17;;;;;;;0.50;0.50;;;;;;;9.63;99.68;98736.69;5067024;28;20111;-72
2022/09/26 06:51:45;;;;;;;0.35;0.35;;;;;;;9.69;99.51;98748.63;5066318;28;20029;-73
2022/09/26 06:54:11;;;;;;;0.40;0.40;;;;;;;9.63;99.75;98739.28;5065463;28;20033;-72
2022/09/26 06:56:36;;;;;;;0.50;0.50;;;;;;;9.73;99.36;98741.59;5066971;28;20548;-72
2022/09/26 06:59:02;;;;;;;0.43;0.43;;;;;;;9.69;99.58;98740.00;5066648;28;20029;-73
2022/09/26 07:01:27;;;;;;;0.50;0.50;;;;;;;9.69;99.53;98734.81;5065610;28;20043;-73
2022/09/26 07:03:53;;;;;;;0.50;0.50;;;;;;;9.72;99.44;98739.88;5066773;28;20017;-73
2022/09/26 07:06:18;;;;;;;0.47;0.47;;;;;;;9.81;99.25;98743.94;5066792;28;20107;-73
2022/09/26 07:08:44;;;;;;;0.50;0.50;;;;;;;9.79;99.28;98736.22;5065018;28;20416;-73
2022/09/26 07:11:09;;;;;;;0.40;0.40;;;;;;;9.86;99.34;98732.53;5066655;28;20051;-72
2022/09/26 07:13:35;;;;;;;0.40;0.40;;;;;;;9.82;99.41;98725.75;5066684;28;20308;-72
2022/09/26 07:16:00;;;;;;;0.47;0.47;;;;;;;9.90;99.67;98728.91;5066634;28;20048;-73
2022/09/26 07:18:26;;;;;;;0.40;0.40;;;;;;;9.88;99.27;98725.56;5066522;28;20048;-74
2022/09/26 07:20:52;;;;;;;0.40;0.40;;;;;;;9.86;99.58;98727.34;5066526;28;20017;-73
2022/09/26 07:23:17;;;;;;;0.40;0.40;;;;;;;9.85;99.71;98725.66;5065010;28;20029;-73
2022/09/26 07:25:44;;;;;;;0.43;0.43;;;;;;;9.91;99.16;98720.28;5066165;28;20029;-73
2022/09/26 07:28:10;;;;;;;0.40;0.40;;;;;;;9.97;98.20;98723.56;5064031;28;20096;-72
2022/09/26 07:30:35;;;;;;;0.43;0.43;;;;;;;9.96;97.85;98727.03;5065625;28;20040;-72
2022/09/26 07:33:02;;;;;;;0.50;0.50;;;;;;;9.96;97.92;98721.84;5066560;28;20028;-74
2022/09/26 07:35:34;;;;;;;0.60;0.60;;;;;;;9.84;98.81;98715.34;5066276;28;20040;-72
2022/09/26 07:38:00;;;;;;;0.60;0.60;;;;;;;9.94;98.24;98718.44;5066205;28;20025;-73
2022/09/26 07:40:26;;;;;;;0.40;0.40;;;;;;;9.81;99.54;98712.84;5065803;28;20029;-74
2022/09/26 07:42:52;;;;;;;1.95;1.85;;;;;;;9.89;99.82;98713.41;5066058;28;20105;-73
2022/09/26 07:50:10;;;;;;;0.40;0.40;;;;;;;9.90;99.76;98703.00;5066070;28;20028;-74
2022/09/26 07:50:56;;;;;;;0.50;0.50;;;;;;;10.07;98.99;98703.34;5066105;28;20051;-74
2022/09/26 07:53:22;;;;;;;0.50;0.50;;;;;;;10.15;98.63;98704.78;5066109;28;20540;-75
2022/09/26 07:56:09;;;;;;;0.40;0.40;;;;;;;10.20;98.00;98706.38;5065653;28;20080;-74
2022/09/26 07:58:39;;;;;;;0.50;0.50;;;;;;;10.10;98.86;98706.69;5065874;28;20090;-73
2022/09/26 08:01:10;;;;;;;1.50;1.40;;;;;;;10.11;99.19;98705.78;5065735;28;20302;-74
2022/09/26 08:03:43;;;;;;;0.50;0.50;;;;;;;10.07;98.66;98683.44;5064870;28;20051;-73
2022/09/26 08:06:09;;;;;;;0.40;0.40;;;;;;;10.11;98.99;98697.16;5065733;28;20105;-73
2022/09/26 08:08:37;;;;;;;0.50;0.50;;;;;;;10.16;98.05;98701.28;5064284;28;20025;-75
2022/09/26 08:11:04;;;;;;;0.40;0.40;;;;;;;10.10;97.88;98690.25;5062942;28;20021;-72
2022/09/26 08:13:31;;;;;;;0.30;0.30;;;;;;;10.09;99.06;98699.81;5063134;28;20021;-73
2022/09/26 08:16:02;;;;;;;0.40;0.40;;;;;;;10.08;99.00;98690.31;5064485;28;20016;-75
2022/09/26 08:18:28;;;;;;;0.50;0.50;;;;;;;10.14;98.14;98694.47;5065232;28;20049;-74
2022/09/26 08:20:53;;;;;;;0.40;0.40;;;;;;;10.09;98.45;98696.38;5065141;28;20063;-74
2022/09/26 08:23:18;;;;;;;0.35;0.35;;;;;;;10.11;98.03;98689.38;5063937;28;20047;-73
2022/09/26 08:25:44;;;;;;;0.40;0.40;;;;;;;10.14;97.43;98690.09;5064934;28;20029;-74
2022/09/26 08:28:13;;;;;;;0.40;0.40;;;;;;;10.11;96.85;98679.84;5063881;28;20028;-76
2022/09/26 08:30:43;;;;;;;0.40;0.40;;;;;;;10.01;97.17;98681.06;5065130;28;20056;-74
2022/09/26 08:33:11;;;;;;;0.40;0.40;;;;;;;9.97;98.08;98682.91;5063825;28;20017;-73
2022/09/26 08:35:39;;;;;;;0.50;0.50;;;;;;;9.98;98.79;98671.66;5065136;28;20020;-74
2022/09/26 08:38:05;;;;;;;0.40;0.40;;;;;;;10.08;99.08;98689.50;5063609;28;20087;-74
2022/09/26 08:40:44;;;;;;;0.40;0.40;;;;;;;10.16;99.05;98682.28;5064882;28;20035;-75
2022/09/26 08:43:38;;;;;;;0.50;0.50;;;;;;;10.22;97.49;98682.09;5063613;28;20029;-76
2022/09/26 08:49:01;;;;;;;0.53;0.53;;;;;;;10.23;96.64;98663.03;5065213;28;20032;-74
2022/09/26 08:51:36;;;;;;;0.50;0.50;;;;;;;10.23;96.38;98668.22;5064877;28;20032;-74
2022/09/26 08:54:15;;;;;;;0.40;0.40;;;;;;;10.01;97.83;98670.69;5064444;28;20277;-74
2022/09/26 08:56:47;;;;;;;0.50;0.50;;;;;;;10.10;97.99;98662.59;5063428;28;20047;-76
2022/09/26 08:59:28;;;;;;;0.50;0.50;;;;;;;10.28;94.97;98649.91;5064710;28;20089;-72
2022/09/26 09:01:57;;;;;;;0.60;0.60;;;;;;;10.11;96.17;98646.13;5063253;28;20024;-73
2022/09/26 09:04:49;;;;;;;0.50;0.50;;;;;;;10.05;97.71;98656.72;5064701;28;20029;-73
2022/09/26 09:07:23;;;;;;;0.50;0.50;;;;;;;10.30;95.74;98653.28;5064130;28;20033;-73
2022/09/26 09:09:52;;;;;;;0.40;0.40;;;;;;;10.16;96.00;98654.59;5063325;28;20028;-74
2022/09/26 09:12:45;;;;;;;0.50;0.50;;;;;;;10.06;96.73;98663.63;5064217;28;20025;-72
2022/09/26 09:15:44;;;;;;;0.38;0.38;;;;;;;10.05;97.70;98654.13;5064504;28;20025;-74
2022/09/26 09:18:29;;;;;;;0.50;0.50;;;;;;;10.10;97.08;98641.84;5064328;28;20049;-75
2022/09/26 09:21:21;;;;;;;0.40;0.40;;;;;;;10.15;96.06;98639.97;5064329;28;20117;-75
2022/09/26 09:24:10;;;;;;;;;;;;;;;10.07;96.53;98643.69;5062449;28;20032;-72
2022/09/26 09:26:50;;;;;;;0.50;0.50;;;;;;;10.00;96.64;98640.50;5062772;28;19924;-73
2022/09/26 09:29:43;;;;;;;0.40;0.40;;;;;;;9.99;96.89;98631.88;5064240;28;20029;-75
2022/09/26 09:32:13;;;;;;;0.40;0.40;;;;;;;10.06;96.82;98642.88;5064264;28;20031;-73
2022/09/26 09:34:41;;;;;;;0.40;0.40;;;;;;;10.02;97.14;98636.94;5064394;28;20376;-73
2022/09/26 09:37:15;;;;;;;0.40;0.40;;;;;;;10.04;97.81;98639.47;5064418;28;20063;-73
2022/09/26 09:39:45;;;;;;;0.50;0.50;;;;;;;10.07;97.23;98630.75;5062853;28;20041;-72
2022/09/26 09:42:26;;;;;;;0.50;0.50;;;;;;;10.11;97.24;98637.53;5062753;28;20123;-72
2022/09/26 09:45:04;;;;;;;0.60;0.60;;;;;;;10.17;95.86;98616.56;5064349;28;20023;-73
2022/09/26 09:47:36;;;;;;;0.40;0.40;;;;;;;10.02;95.97;98623.13;5064120;28;20087;-71
2022/09/26 09:50:13;;;;;;;0.57;0.57;;;;;;;10.00;96.91;98624.94;5062775;28;20092;-70
2022/09/26 09:53:20;;;;;;;0.40;0.40;;;;;;;10.03;97.70;98619.66;5062913;28;20029;-70
2022/09/26 09:56:07;;;;;;;0.50;0.50;;;;;;;10.09;98.37;98629.81;5064038;28;20013;-73
2022/09/26 09:58:45;;;;;;;0.82;0.82;;;;;;;10.10;97.83;98618.53;5062803;28;20029;-70
2022/09/26 10:01:41;;;;;;;0.40;0.40;;;;;;;10.15;98.32;98624.41;5063971;28;20031;-70
2022/09/26 10:04:19;;;;;;;5.32;3.20;;;;;;;10.25;98.57;98618.88;5055679;28;20106;-70
2022/09/26 10:06:45;;;;;;;0.40;0.40;;;;;;;10.29;98.55;98616.13;5062533;28;20032;-70
2022/09/26 10:09:36;;;;;;;0.40;0.40;;;;;;;10.41;98.72;98620.00;5062400;28;20438;-69
2022/09/26 10:12:11;;;;;;;0.40;0.40;;;;;;;10.54;98.65;98619.59;5063596;28;20535;-69
2022/09/26 10:14:44;;;;;;;0.40;0.40;;;;;;;10.62;98.65;98620.13;5063894;28;20028;-70
2022/09/26 10:17:12;;;;;;;0.40;0.40;;;;;;;10.77;98.32;98616.13;5063730;28;20473;-69
2022/09/26 10:19:42;;;;;;;0.40;0.40;;;;;;;10.83;97.97;98615.03;5063628;28;20028;-69
2022/09/26 10:22:41;;;;;;;0.40;0.40;;;;;;;10.90;98.31;98613.91;5064075;28;20043;-69
2022/09/26 10:25:15;;;;;;;0.40;0.40;;;;;;;10.94;98.54;98616.38;5063869;28;20060;-70
2022/09/26 10:27:49;;;;;;;0.32;0.32;;;;;;;11.04;99.13;98617.72;5067842;28;20336;-70
2022/09/26 10:30:17;;;;;;;0.40;0.40;;;;;;;11.12;98.65;98607.00;5067556;28;20029;-69
2022/09/26 10:32:57;;;;;;;0.40;0.40;;;;;;;11.19;98.79;98607.63;5067142;28;20017;-70
2022/09/26 10:35:40;;;;;;;0.40;0.40;;;;;;;11.22;98.69;98610.94;5067555;28;20044;-69
2022/09/26 10:38:23;;;;;;;0.40;0.40;;;;;;;11.26;98.71;98604.72;5066269;28;20078;-70
2022/09/26 10:40:58;;;;;;;0.40;0.40;;;;;;;11.30;98.37;98602.00;5067337;28;20029;-70
2022/09/26 10:43:31;;;;;;;0.40;0.40;;;;;;;11.26;97.84;98591.72;5067495;28;20516;-70
2022/09/26 10:46:14;;;;;;;0.40;0.40;;;;;;;11.24;97.52;98596.16;5067258;28;20438;-71
2022/09/26 10:48:45;;;;;;;;;;;;;;;11.29;97.47;98590.78;5068026;28;20040;-71
2022/09/26 10:51:28;;;;;;;36.00;2.72;;;;;;;11.37;97.09;98588.69;5067332;28;19912;-72
2022/09/26 10:54:03;;;;;;;0.50;0.50;;;;;;;11.38;96.88;98584.34;5067226;28;20025;-72
2022/09/26 10:56:35;;;;;;;0.40;0.40;;;;;;;11.46;96.90;98581.44;5067272;28;20021;-72
2022/09/26 10:59:07;;;;;;;;;;;;;;;11.56;95.98;98582.75;5067651;28;20159;-71
2022/09/26 11:01:41;;;;;;;0.40;0.40;;;;;;;11.42;96.88;98575.53;5067116;28;19947;-72
2022/09/26 11:07:09;;;;;;;0.40;0.40;;;;;;;11.68;97.63;98581.38;5067162;28;20055;-74
2022/09/26 11:09:37;;;;;;;0.40;0.40;;;;;;;11.76;98.53;98578.44;5066863;28;20032;-73
2022/09/26 11:12:24;;;;;;;0.40;0.40;;;;;;;11.98;98.82;98580.13;5066752;28;20520;-74
2022/09/26 11:15:13;;;;;;;0.40;0.40;;;;;;;12.16;99.18;98567.25;5067067;28;20017;-72
2022/09/26 11:17:46;;;;;;;0.40;0.40;;;;;;;12.32;98.04;98564.78;5066182;28;20600;-70
2022/09/26 11:20:50;;;;;;;0.40;0.40;;;;;;;12.44;97.67;98563.41;5066720;28;20030;-69
2022/09/26 11:23:34;;;;;;;0.40;0.40;;;;;;;12.47;97.33;98563.25;5063424;28;20040;-68
2022/09/26 11:26:32;;;;;;;0.40;0.40;;;;;;;12.56;97.35;98555.00;5065901;28;20041;-67
2022/09/26 11:29:12;;;;;;;0.40;0.40;;;;;;;12.56;96.43;98562.81;5065441;28;20207;-66
2022/09/26 11:31:41;;;;;;;0.40;0.40;;;;;;;12.57;96.57;98558.47;5066022;28;20032;-65
2022/09/26 11:34:12;;;;;;;0.40;0.40;;;;;;;12.53;96.39;98555.16;5066420;28;20040;-66
2022/09/26 11:36:53;;;;;;;0.50;0.50;;;;;;;12.58;96.50;98560.16;5066535;28;20012;-65
2022/09/26 11:39:30;;;;;;;0.40;0.40;;;;;;;12.57;96.53;98558.47;5066041;28;20308;-65
2022/09/26 11:42:38;;;;;;;0.32;0.32;;;;;;;12.53;96.08;98552.56;5066392;28;20025;-64
2022/09/26 11:45:33;;;;;;;0.40;0.40;;;;;;;12.33;96.33;98543.06;5066112;28;20025;-65
2022/09/26 11:48:05;;;;;;;0.40;0.40;;;;;;;12.34;96.39;98542.16;4984642;28;20146;-65
2022/09/26 11:50:45;;;;;;;0.38;0.38;;;;;;;12.23;96.05;98535.69;4984640;28;20026;-66
2022/09/26 11:53:35;;;;;;;0.40;0.40;;;;;;;12.18;95.97;98542.84;4984769;28;20038;-68
2022/09/26 11:56:41;;;;;;;0.40;0.40;;;;;;;12.05;96.35;98539.91;4984375;28;20126;-68
2022/09/26 11:59:43;;;;;;;0.40;0.40;;;;;;;12.10;97.21;98545.81;4984648;28;20038;-68
2022/09/26 12:02:31;;;;;;;0.50;0.50;;;;;;;12.09;97.42;98548.47;4984553;28;20027;-68
2022/09/26 12:05:12;;;;;;;0.40;0.40;;;;;;;12.07;98.02;98535.50;4984420;28;20066;-69
2022/09/26 12:07:53;;;;;;;0.50;0.50;;;;;;;12.17;97.67;98530.78;4984657;28;20038;-69
2022/09/26 12:10:49;;;;;;;0.40;0.40;;;;;;;12.13;97.81;98526.59;4967778;28;20058;-68
2022/09/26 12:13:33;;;;;;;0.77;0.77;;;;;;;12.13;98.28;98529.19;4984447;28;20031;-68
2022/09/26 12:15:59;;;;;;;0.40;0.40;;;;;;;12.09;98.39;98523.28;4984258;28;20018;-68
2022/09/26 12:18:42;;;;;;;0.40;0.40;;;;;;;12.09;98.62;98518.09;4967745;28;20062;-70
2022/09/26 12:21:19;;;;;;;0.40;0.40;;;;;;;12.09;98.70;98518.09;4984368;28;20434;-71